ENHD/HAU METAR and TAF weather

Enter ICAO airport designator
Station Type Date Time Source
ENHD METAR 2018/01/19 17:20 UTC NOAA

ENHD 191720Z 13012KT 9999 BKN004 BKN006 01/01 Q0997


Station Type Date Time Source
ENHD Decoded METAR 2018/01/19 17:20 UTC NOAA

Haugesund / Karmoy, Norway (ENHD) 59-21N 005-13E 24M
Jan 19, 2018 - 12:20 PM EST / 2018.01.19 1720 UTC
Wind: from the SE (130 degrees) at 14 MPH (12 KT):0
Visibility: greater than 7 mile(s):0
Sky conditions: mostly cloudy
Temperature: 33 F (1 C)
Windchill: 23 F (-5 C):1
Dew Point: 33 F (1 C)
Relative Humidity: 100%
Pressure (altimeter): 29.44 in. Hg (0997 hPa)
ob: ENHD 191720Z 13012KT 9999 BKN004 BKN006 01/01 Q0997
cycle: 17

Station Type Date Time Source
ENHD TAF UTC NOAA

Error!


Example: see airport list